VTRDG VOBL-VOTP
Flight info
| Callsign | VTRDG |
|---|---|
| Flight time | 1h 7m |
| Altitude | 6000 |
| Route | VEMBO8A VEMBO W141 TTP |
| Aircraft | C182/L-SDGRY/S |
Departure
| Time | 2026-05-07 07:32 |
|---|---|
| Airport | Kempegowda International Airport Bengaluru (VOBL) |
Arrival
| Time | 2026-05-07 08:40 |
|---|---|
| Airport | Tirupati International Airport (VOTP) |
| Time | Latitude | Longitude | Altitude | Speed | Heading |
|---|---|---|---|---|---|
| 2026-05-07 07:11 | 13.20263 | 77.72251 | 2963 ft | 0 kts | 0° |
| 2026-05-07 07:17 | 13.20264 | 77.72251 | 2963 ft | 0 kts | 11° |
| 2026-05-07 07:17 | 13.20263 | 77.72255 | 2963 ft | 2 kts | 181° |
| 2026-05-07 07:17 | 13.20243 | 77.72251 | 2956 ft | 0 kts | 180° |
| 2026-05-07 07:19 | 13.20215 | 77.72251 | 2960 ft | 4 kts | 185° |
| 2026-05-07 07:19 | 13.20193 | 77.72250 | 2963 ft | 2 kts | 181° |
| 2026-05-07 07:19 | 13.20179 | 77.72230 | 2958 ft | 11 kts | 262° |
| 2026-05-07 07:20 | 13.20177 | 77.72153 | 2963 ft | 10 kts | 270° |
| 2026-05-07 07:20 | 13.20177 | 77.72086 | 2963 ft | 10 kts | 266° |
| 2026-05-07 07:20 | 13.20178 | 77.72014 | 2963 ft | 9 kts | 270° |
| 2026-05-07 07:20 | 13.20178 | 77.71951 | 2963 ft | 10 kts | 273° |
| 2026-05-07 07:21 | 13.20179 | 77.71880 | 2963 ft | 11 kts | 270° |
| 2026-05-07 07:21 | 13.20185 | 77.71806 | 2956 ft | 9 kts | 317° |
| 2026-05-07 07:21 | 13.20215 | 77.71786 | 2963 ft | 5 kts | 353° |
| 2026-05-07 07:21 | 13.20277 | 77.71786 | 2963 ft | 9 kts | 1° |
| 2026-05-07 07:22 | 13.20331 | 77.71787 | 2963 ft | 7 kts | 358° |
| 2026-05-07 07:22 | 13.20367 | 77.71787 | 2963 ft | 4 kts | 1° |
| 2026-05-07 07:22 | 13.20390 | 77.71787 | 2963 ft | 2 kts | 360° |
| 2026-05-07 07:22 | 13.20394 | 77.71787 | 2963 ft | 0 kts | 359° |
| 2026-05-07 07:23 | 13.20432 | 77.71765 | 2963 ft | 14 kts | 305° |
| 2026-05-07 07:23 | 13.20435 | 77.71641 | 2963 ft | 22 kts | 272° |
| 2026-05-07 07:23 | 13.20438 | 77.71492 | 2963 ft | 19 kts | 270° |
| 2026-05-07 07:23 | 13.20439 | 77.71365 | 2962 ft | 16 kts | 273° |
| 2026-05-07 07:24 | 13.20440 | 77.71324 | 2962 ft | 0 kts | 281° |
| 2026-05-07 07:27 | 13.20441 | 77.71317 | 2962 ft | 6 kts | 287° |
| 2026-05-07 07:27 | 13.20472 | 77.71283 | 2960 ft | 7 kts | 340° |
| 2026-05-07 07:27 | 13.20512 | 77.71269 | 2961 ft | 5 kts | 341° |
| 2026-05-07 07:27 | 13.20522 | 77.71196 | 2961 ft | 24 kts | 268° |
| 2026-05-07 07:28 | 13.20523 | 77.70985 | 2959 ft | 29 kts | 271° |
| 2026-05-07 07:28 | 13.20527 | 77.70792 | 2961 ft | 25 kts | 272° |
| 2026-05-07 07:28 | 13.20524 | 77.70626 | 2963 ft | 22 kts | 264° |
| 2026-05-07 07:28 | 13.20531 | 77.70440 | 2963 ft | 26 kts | 271° |
| 2026-05-07 07:29 | 13.20530 | 77.70244 | 2966 ft | 34 kts | 270° |
| 2026-05-07 07:29 | 13.20533 | 77.70001 | 2965 ft | 31 kts | 272° |
| 2026-05-07 07:29 | 13.20535 | 77.69797 | 2965 ft | 26 kts | 270° |
| 2026-05-07 07:29 | 13.20536 | 77.69619 | 2964 ft | 28 kts | 268° |
| 2026-05-07 07:30 | 13.20539 | 77.69408 | 2961 ft | 30 kts | 270° |
| 2026-05-07 07:30 | 13.20540 | 77.69268 | 2962 ft | 0 kts | 269° |
| 2026-05-07 07:30 | 13.20562 | 77.69215 | 2956 ft | 10 kts | 330° |
| 2026-05-07 07:30 | 13.20617 | 77.69210 | 2957 ft | 7 kts | 359° |
| 2026-05-07 07:31 | 13.20700 | 77.69223 | 2963 ft | 13 kts | 47° |
| 2026-05-07 07:31 | 13.20708 | 77.69384 | 2963 ft | 46 kts | 90° |
| 2026-05-07 07:31 | 13.20707 | 77.69871 | 2996 ft | 85 kts | 90° |
| 2026-05-07 07:31 | 13.20714 | 77.70504 | 3237 ft | 91 kts | 90° |
| 2026-05-07 07:32 | 13.20725 | 77.71148 | 3520 ft | 93 kts | 92° |
| 2026-05-07 07:32 | 13.20886 | 77.71801 | 3813 ft | 101 kts | 58° |
| 2026-05-07 07:32 | 13.21273 | 77.72407 | 4053 ft | 103 kts | 59° |
| 2026-05-07 07:32 | 13.21645 | 77.73039 | 4268 ft | 104 kts | 61° |
| 2026-05-07 07:33 | 13.22011 | 77.73688 | 4481 ft | 105 kts | 56° |
| 2026-05-07 07:33 | 13.22528 | 77.74238 | 4738 ft | 107 kts | 47° |
| 2026-05-07 07:33 | 13.23060 | 77.74805 | 4970 ft | 113 kts | 48° |
| 2026-05-07 07:33 | 13.23609 | 77.75393 | 5188 ft | 115 kts | 47° |
| 2026-05-07 07:34 | 13.24152 | 77.75980 | 5433 ft | 115 kts | 48° |
| 2026-05-07 07:34 | 13.24710 | 77.76582 | 5678 ft | 115 kts | 49° |
| 2026-05-07 07:34 | 13.25254 | 77.77171 | 5944 ft | 114 kts | 49° |
| 2026-05-07 07:34 | 13.25801 | 77.77763 | 6199 ft | 113 kts | 48° |
| 2026-05-07 07:35 | 13.26342 | 77.78348 | 6450 ft | 112 kts | 49° |
| 2026-05-07 07:35 | 13.26877 | 77.78928 | 6682 ft | 111 kts | 48° |
| 2026-05-07 07:35 | 13.27401 | 77.79496 | 6913 ft | 110 kts | 48° |
| 2026-05-07 07:35 | 13.27926 | 77.80064 | 7123 ft | 109 kts | 48° |
| 2026-05-07 07:36 | 13.28445 | 77.80628 | 7305 ft | 108 kts | 48° |
| 2026-05-07 07:36 | 13.28961 | 77.81186 | 7514 ft | 107 kts | 48° |
| 2026-05-07 07:36 | 13.29460 | 77.81726 | 7689 ft | 100 kts | 48° |
| 2026-05-07 07:36 | 13.29943 | 77.82250 | 7865 ft | 101 kts | 49° |
| 2026-05-07 07:37 | 13.30428 | 77.82774 | 8036 ft | 100 kts | 48° |
| 2026-05-07 07:37 | 13.30902 | 77.83288 | 8171 ft | 98 kts | 48° |
| 2026-05-07 07:37 | 13.31382 | 77.83810 | 8204 ft | 106 kts | 48° |
| 2026-05-07 07:37 | 13.31909 | 77.84382 | 8215 ft | 113 kts | 48° |
| 2026-05-07 07:38 | 13.32451 | 77.84971 | 8232 ft | 116 kts | 48° |
| 2026-05-07 07:38 | 13.32980 | 77.85544 | 8385 ft | 105 kts | 48° |
| 2026-05-07 07:38 | 13.33457 | 77.86061 | 8535 ft | 95 kts | 48° |
| 2026-05-07 07:38 | 13.33894 | 77.86532 | 8671 ft | 86 kts | 48° |
| 2026-05-07 07:39 | 13.34277 | 77.86947 | 8793 ft | 75 kts | 48° |
| 2026-05-07 07:39 | 13.34621 | 77.87316 | 8832 ft | 69 kts | 47° |
| 2026-05-07 07:39 | 13.34948 | 77.87669 | 8846 ft | 66 kts | 47° |
| 2026-05-07 07:39 | 13.35256 | 77.88003 | 8836 ft | 66 kts | 48° |
| 2026-05-07 07:40 | 13.35570 | 77.88345 | 8836 ft | 65 kts | 47° |
| 2026-05-07 07:40 | 13.35905 | 77.88707 | 8776 ft | 75 kts | 47° |
| 2026-05-07 07:40 | 13.36265 | 77.89098 | 8801 ft | 73 kts | 47° |
| 2026-05-07 07:40 | 13.36599 | 77.89459 | 8826 ft | 71 kts | 47° |
| 2026-05-07 07:41 | 13.36979 | 77.89875 | 8798 ft | 74 kts | 47° |
| 2026-05-07 07:41 | 13.37311 | 77.90233 | 8850 ft | 67 kts | 46° |
| 2026-05-07 07:41 | 13.37681 | 77.90636 | 8762 ft | 81 kts | 47° |
| 2026-05-07 07:41 | 13.38097 | 77.91085 | 8687 ft | 94 kts | 47° |
| 2026-05-07 07:42 | 13.38593 | 77.91602 | 8558 ft | 108 kts | 46° |
| 2026-05-07 07:42 | 13.39054 | 77.92077 | 8884 ft | 73 kts | 45° |
| 2026-05-07 07:42 | 13.39457 | 77.92456 | 8887 ft | 75 kts | 42° |
| 2026-05-07 07:42 | 13.39834 | 77.92781 | 8939 ft | 66 kts | 40° |
| 2026-05-07 07:43 | 13.40235 | 77.93103 | 8816 ft | 80 kts | 39° |
| 2026-05-07 07:43 | 13.40712 | 77.93522 | 8729 ft | 90 kts | 48° |
| 2026-05-07 07:43 | 13.41059 | 77.94029 | 8785 ft | 84 kts | 61° |
| 2026-05-07 07:43 | 13.41380 | 77.94529 | 8806 ft | 84 kts | 51° |
| 2026-05-07 07:44 | 13.41760 | 77.95004 | 8817 ft | 83 kts | 49° |
| 2026-05-07 07:44 | 13.42163 | 77.95448 | 8837 ft | 82 kts | 49° |
| 2026-05-07 07:44 | 13.42564 | 77.95880 | 8796 ft | 87 kts | 45° |
| 2026-05-07 07:44 | 13.42982 | 77.96292 | 8845 ft | 80 kts | 47° |
| 2026-05-07 07:45 | 13.43215 | 77.96526 | 8942 ft | 67 kts | 44° |
| 2026-05-07 07:45 | 13.43564 | 77.96851 | 8998 ft | 69 kts | 40° |
| 2026-05-07 07:45 | 13.43942 | 77.97143 | 9119 ft | 69 kts | 38° |
| 2026-05-07 07:45 | 13.44483 | 77.97507 | 9202 ft | 76 kts | 33° |
| 2026-05-07 07:46 | 13.44797 | 77.97691 | 9311 ft | 81 kts | 31° |
| 2026-05-07 07:46 | 13.45317 | 77.97971 | 9483 ft | 89 kts | 29° |
| 2026-05-07 07:46 | 13.45762 | 77.98463 | 9577 ft | 101 kts | 54° |
| 2026-05-07 07:46 | 13.46215 | 77.99084 | 9664 ft | 115 kts | 53° |
| 2026-05-07 07:47 | 13.46726 | 77.99766 | 9739 ft | 125 kts | 52° |
| 2026-05-07 07:47 | 13.47299 | 78.00472 | 9794 ft | 132 kts | 50° |
| 2026-05-07 07:47 | 13.47902 | 78.01188 | 9841 ft | 136 kts | 49° |
| 2026-05-07 07:47 | 13.48513 | 78.01901 | 9870 ft | 127 kts | 49° |
| 2026-05-07 07:48 | 13.49080 | 78.02557 | 9885 ft | 119 kts | 49° |
| 2026-05-07 07:48 | 13.49620 | 78.03183 | 9893 ft | 115 kts | 49° |
| 2026-05-07 07:48 | 13.50145 | 78.03790 | 9907 ft | 112 kts | 49° |
| 2026-05-07 07:48 | 13.50658 | 78.04383 | 9919 ft | 109 kts | 49° |
| 2026-05-07 07:49 | 13.51157 | 78.04961 | 9933 ft | 107 kts | 49° |
| 2026-05-07 07:49 | 13.51648 | 78.05529 | 9941 ft | 106 kts | 49° |
| 2026-05-07 07:49 | 13.52139 | 78.06098 | 9940 ft | 107 kts | 49° |
| 2026-05-07 07:49 | 13.52626 | 78.06661 | 9941 ft | 107 kts | 49° |
| 2026-05-07 07:50 | 13.53119 | 78.07233 | 9938 ft | 107 kts | 49° |
| 2026-05-07 07:50 | 13.53615 | 78.07807 | 9940 ft | 107 kts | 49° |
| 2026-05-07 07:50 | 13.54108 | 78.08378 | 9936 ft | 107 kts | 49° |
| 2026-05-07 07:50 | 13.54598 | 78.08946 | 9937 ft | 105 kts | 49° |
| 2026-05-07 07:51 | 13.55088 | 78.09513 | 9935 ft | 106 kts | 49° |
| 2026-05-07 07:51 | 13.55532 | 78.10118 | 9932 ft | 106 kts | 66° |
| 2026-05-07 07:51 | 13.55652 | 78.10857 | 9933 ft | 106 kts | 86° |
| 2026-05-07 07:51 | 13.55687 | 78.11602 | 9933 ft | 105 kts | 84° |
| 2026-05-07 07:52 | 13.55725 | 78.12359 | 9933 ft | 106 kts | 85° |
| 2026-05-07 07:52 | 13.55764 | 78.13120 | 9937 ft | 107 kts | 85° |
| 2026-05-07 07:52 | 13.55802 | 78.13885 | 9932 ft | 107 kts | 85° |
| 2026-05-07 07:52 | 13.55842 | 78.14668 | 9946 ft | 115 kts | 85° |
| 2026-05-07 07:53 | 13.55886 | 78.15546 | 9951 ft | 129 kts | 85° |
| 2026-05-07 07:53 | 13.55931 | 78.16478 | 9952 ft | 135 kts | 85° |
| 2026-05-07 07:53 | 13.55978 | 78.17455 | 9949 ft | 138 kts | 85° |
| 2026-05-07 07:53 | 13.56028 | 78.18455 | 9950 ft | 140 kts | 85° |
| 2026-05-07 07:54 | 13.56077 | 78.19464 | 9946 ft | 142 kts | 85° |
| 2026-05-07 07:54 | 13.56127 | 78.20468 | 9944 ft | 143 kts | 85° |
| 2026-05-07 07:54 | 13.56178 | 78.21488 | 9941 ft | 143 kts | 85° |
| 2026-05-07 07:54 | 13.56229 | 78.22512 | 9943 ft | 143 kts | 85° |
| 2026-05-07 07:55 | 13.56279 | 78.23534 | 9941 ft | 143 kts | 85° |
| 2026-05-07 07:55 | 13.56330 | 78.24555 | 9940 ft | 143 kts | 85° |
| 2026-05-07 07:55 | 13.56380 | 78.25582 | 9940 ft | 144 kts | 85° |
| 2026-05-07 07:55 | 13.56431 | 78.26596 | 9939 ft | 144 kts | 85° |
| 2026-05-07 07:56 | 13.56481 | 78.27618 | 9941 ft | 143 kts | 85° |
| 2026-05-07 07:56 | 13.56532 | 78.28641 | 9941 ft | 143 kts | 85° |
| 2026-05-07 07:56 | 13.56582 | 78.29667 | 9935 ft | 143 kts | 85° |
| 2026-05-07 07:56 | 13.56633 | 78.30687 | 9939 ft | 143 kts | 85° |
| 2026-05-07 07:57 | 13.56683 | 78.31714 | 9933 ft | 143 kts | 85° |
| 2026-05-07 07:57 | 13.56733 | 78.32735 | 9931 ft | 143 kts | 85° |
| 2026-05-07 07:57 | 13.56783 | 78.33745 | 9929 ft | 143 kts | 85° |
| 2026-05-07 07:57 | 13.56834 | 78.34771 | 9930 ft | 144 kts | 85° |
| 2026-05-07 07:58 | 13.56883 | 78.35798 | 9929 ft | 143 kts | 85° |
| 2026-05-07 07:58 | 13.56934 | 78.36826 | 9931 ft | 143 kts | 85° |
| 2026-05-07 07:58 | 13.56983 | 78.37832 | 9930 ft | 142 kts | 85° |
| 2026-05-07 07:58 | 13.57032 | 78.38845 | 9934 ft | 142 kts | 85° |
| 2026-05-07 07:59 | 13.57083 | 78.39866 | 9929 ft | 143 kts | 85° |
| 2026-05-07 07:59 | 13.57133 | 78.40891 | 9926 ft | 143 kts | 85° |
| 2026-05-07 07:59 | 13.57182 | 78.41915 | 9924 ft | 143 kts | 85° |
| 2026-05-07 07:59 | 13.57232 | 78.42937 | 9922 ft | 142 kts | 85° |
| 2026-05-07 08:00 | 13.57281 | 78.43941 | 9924 ft | 143 kts | 85° |
| 2026-05-07 08:00 | 13.57331 | 78.44962 | 9925 ft | 143 kts | 85° |
| 2026-05-07 08:00 | 13.57380 | 78.45982 | 9924 ft | 143 kts | 85° |
| 2026-05-07 08:00 | 13.57429 | 78.46995 | 9919 ft | 141 kts | 85° |
| 2026-05-07 08:01 | 13.57479 | 78.48007 | 9924 ft | 142 kts | 85° |
| 2026-05-07 08:01 | 13.57528 | 78.49025 | 9921 ft | 143 kts | 85° |
| 2026-05-07 08:01 | 13.57578 | 78.50050 | 9923 ft | 143 kts | 85° |
| 2026-05-07 08:01 | 13.57627 | 78.51075 | 9917 ft | 143 kts | 85° |
| 2026-05-07 08:02 | 13.57676 | 78.52084 | 9915 ft | 143 kts | 85° |
| 2026-05-07 08:02 | 13.57725 | 78.53109 | 9917 ft | 144 kts | 85° |
| 2026-05-07 08:02 | 13.57775 | 78.54133 | 9918 ft | 143 kts | 86° |
| 2026-05-07 08:02 | 13.57825 | 78.55158 | 9918 ft | 143 kts | 85° |
| 2026-05-07 08:03 | 13.57874 | 78.56183 | 9917 ft | 143 kts | 85° |
| 2026-05-07 08:03 | 13.57924 | 78.57206 | 9917 ft | 143 kts | 85° |
| 2026-05-07 08:03 | 13.57973 | 78.58227 | 9905 ft | 143 kts | 85° |
| 2026-05-07 08:03 | 13.58021 | 78.59245 | 9903 ft | 143 kts | 86° |
| 2026-05-07 08:04 | 13.58070 | 78.60255 | 9902 ft | 143 kts | 85° |
| 2026-05-07 08:04 | 13.58119 | 78.61288 | 9903 ft | 142 kts | 85° |
| 2026-05-07 08:04 | 13.58169 | 78.62291 | 9906 ft | 142 kts | 85° |
| 2026-05-07 08:04 | 13.58216 | 78.63312 | 9907 ft | 143 kts | 85° |
| 2026-05-07 08:05 | 13.58266 | 78.64349 | 9861 ft | 145 kts | 85° |
| 2026-05-07 08:05 | 13.58316 | 78.65380 | 9862 ft | 144 kts | 85° |
| 2026-05-07 08:05 | 13.58365 | 78.66412 | 9831 ft | 144 kts | 85° |
| 2026-05-07 08:05 | 13.58414 | 78.67438 | 9831 ft | 143 kts | 85° |
| 2026-05-07 08:06 | 13.58463 | 78.68459 | 9830 ft | 143 kts | 85° |
| 2026-05-07 08:06 | 13.58512 | 78.69482 | 9823 ft | 142 kts | 85° |
| 2026-05-07 08:06 | 13.58560 | 78.70497 | 9828 ft | 142 kts | 85° |
| 2026-05-07 08:06 | 13.58608 | 78.71502 | 9828 ft | 142 kts | 85° |
| 2026-05-07 08:07 | 13.58656 | 78.72517 | 9828 ft | 142 kts | 85° |
| 2026-05-07 08:07 | 13.58704 | 78.73533 | 9823 ft | 142 kts | 85° |
| 2026-05-07 08:07 | 13.58752 | 78.74549 | 9822 ft | 142 kts | 85° |
| 2026-05-07 08:07 | 13.58800 | 78.75564 | 9825 ft | 142 kts | 85° |
| 2026-05-07 08:08 | 13.58849 | 78.76583 | 9820 ft | 142 kts | 85° |
| 2026-05-07 08:08 | 13.58897 | 78.77588 | 9821 ft | 142 kts | 85° |
| 2026-05-07 08:08 | 13.58944 | 78.78604 | 9822 ft | 143 kts | 85° |
| 2026-05-07 08:08 | 13.58993 | 78.79624 | 9822 ft | 143 kts | 85° |
| 2026-05-07 08:09 | 13.59041 | 78.80645 | 9820 ft | 143 kts | 86° |
| 2026-05-07 08:09 | 13.59089 | 78.81665 | 9821 ft | 142 kts | 85° |
| 2026-05-07 08:09 | 13.59134 | 78.82618 | 9800 ft | 125 kts | 85° |
| 2026-05-07 08:09 | 13.59177 | 78.83519 | 9803 ft | 130 kts | 85° |
| 2026-05-07 08:10 | 13.59229 | 78.84410 | 9796 ft | 120 kts | 84° |
| 2026-05-07 08:10 | 13.59281 | 78.85228 | 9796 ft | 112 kts | 84° |
| 2026-05-07 08:10 | 13.59330 | 78.86023 | 9801 ft | 111 kts | 84° |
| 2026-05-07 08:10 | 13.59378 | 78.86830 | 9801 ft | 114 kts | 84° |
| 2026-05-07 08:11 | 13.59428 | 78.87647 | 9803 ft | 115 kts | 84° |
| 2026-05-07 08:11 | 13.59477 | 78.88470 | 9801 ft | 115 kts | 84° |
| 2026-05-07 08:11 | 13.59526 | 78.89297 | 9802 ft | 116 kts | 84° |
| 2026-05-07 08:11 | 13.59576 | 78.90128 | 9804 ft | 117 kts | 84° |
| 2026-05-07 08:12 | 13.59626 | 78.90967 | 9807 ft | 118 kts | 84° |
| 2026-05-07 08:12 | 13.59677 | 78.91806 | 9801 ft | 117 kts | 84° |
| 2026-05-07 08:12 | 13.59726 | 78.92635 | 9804 ft | 117 kts | 84° |
| 2026-05-07 08:12 | 13.59776 | 78.93474 | 9803 ft | 117 kts | 84° |
| 2026-05-07 08:13 | 13.59825 | 78.94308 | 9804 ft | 117 kts | 84° |
| 2026-05-07 08:13 | 13.59876 | 78.95152 | 9803 ft | 118 kts | 84° |
| 2026-05-07 08:13 | 13.59925 | 78.95982 | 9803 ft | 117 kts | 84° |
| 2026-05-07 08:13 | 13.59976 | 78.96824 | 9805 ft | 118 kts | 84° |
| 2026-05-07 08:14 | 13.60026 | 78.97665 | 9802 ft | 117 kts | 84° |
| 2026-05-07 08:14 | 13.60075 | 78.98502 | 9798 ft | 117 kts | 84° |
| 2026-05-07 08:14 | 13.60125 | 78.99340 | 9799 ft | 117 kts | 84° |
| 2026-05-07 08:14 | 13.60175 | 79.00178 | 9799 ft | 117 kts | 84° |
| 2026-05-07 08:15 | 13.60224 | 79.01000 | 9796 ft | 117 kts | 84° |
| 2026-05-07 08:15 | 13.60273 | 79.01832 | 9791 ft | 116 kts | 84° |
| 2026-05-07 08:15 | 13.60322 | 79.02661 | 9793 ft | 116 kts | 84° |
| 2026-05-07 08:15 | 13.60372 | 79.03490 | 9793 ft | 116 kts | 84° |
| 2026-05-07 08:16 | 13.60420 | 79.04318 | 9790 ft | 116 kts | 84° |
| 2026-05-07 08:16 | 13.60469 | 79.05144 | 9787 ft | 116 kts | 84° |
| 2026-05-07 08:16 | 13.60518 | 79.05962 | 9790 ft | 116 kts | 84° |
| 2026-05-07 08:16 | 13.60566 | 79.06788 | 9788 ft | 115 kts | 84° |
| 2026-05-07 08:17 | 13.60615 | 79.07611 | 9791 ft | 115 kts | 84° |
| 2026-05-07 08:17 | 13.60665 | 79.08437 | 9790 ft | 116 kts | 84° |
| 2026-05-07 08:17 | 13.60713 | 79.09267 | 9783 ft | 116 kts | 84° |
| 2026-05-07 08:17 | 13.60762 | 79.10095 | 9788 ft | 116 kts | 84° |
| 2026-05-07 08:18 | 13.60811 | 79.10925 | 9787 ft | 116 kts | 84° |
| 2026-05-07 08:18 | 13.60858 | 79.11742 | 9789 ft | 116 kts | 85° |
| 2026-05-07 08:18 | 13.60908 | 79.12573 | 9788 ft | 117 kts | 84° |
| 2026-05-07 08:18 | 13.60957 | 79.13409 | 9786 ft | 118 kts | 84° |
| 2026-05-07 08:19 | 13.61007 | 79.14248 | 9790 ft | 118 kts | 84° |
| 2026-05-07 08:19 | 13.61056 | 79.15091 | 9787 ft | 119 kts | 84° |
| 2026-05-07 08:19 | 13.61106 | 79.15941 | 9789 ft | 119 kts | 84° |
| 2026-05-07 08:19 | 13.61154 | 79.16792 | 9787 ft | 119 kts | 84° |
| 2026-05-07 08:20 | 13.61205 | 79.17631 | 9786 ft | 120 kts | 84° |
| 2026-05-07 08:20 | 13.61257 | 79.18507 | 9780 ft | 121 kts | 84° |
| 2026-05-07 08:20 | 13.61306 | 79.19357 | 9776 ft | 120 kts | 85° |
| 2026-05-07 08:20 | 13.61354 | 79.20203 | 9771 ft | 117 kts | 84° |
| 2026-05-07 08:21 | 13.61405 | 79.21042 | 9763 ft | 118 kts | 84° |
| 2026-05-07 08:21 | 13.61455 | 79.21886 | 9764 ft | 119 kts | 84° |
| 2026-05-07 08:21 | 13.61504 | 79.22737 | 9766 ft | 120 kts | 84° |
| 2026-05-07 08:21 | 13.61553 | 79.23583 | 9768 ft | 120 kts | 84° |
| 2026-05-07 08:22 | 13.61604 | 79.24446 | 9765 ft | 121 kts | 83° |
| 2026-05-07 08:22 | 13.61654 | 79.25307 | 9765 ft | 121 kts | 84° |
| 2026-05-07 08:22 | 13.61704 | 79.26173 | 9763 ft | 121 kts | 84° |
| 2026-05-07 08:22 | 13.61755 | 79.27022 | 9762 ft | 120 kts | 85° |
| 2026-05-07 08:23 | 13.61804 | 79.27890 | 9757 ft | 120 kts | 84° |
| 2026-05-07 08:23 | 13.61854 | 79.28733 | 9755 ft | 119 kts | 84° |
| 2026-05-07 08:23 | 13.61903 | 79.29586 | 9751 ft | 119 kts | 84° |
| 2026-05-07 08:23 | 13.61953 | 79.30434 | 9745 ft | 118 kts | 84° |
| 2026-05-07 08:24 | 13.62002 | 79.31279 | 9746 ft | 119 kts | 84° |
| 2026-05-07 08:24 | 13.62051 | 79.32129 | 9747 ft | 119 kts | 84° |
| 2026-05-07 08:24 | 13.62100 | 79.32975 | 9743 ft | 118 kts | 84° |
| 2026-05-07 08:24 | 13.62149 | 79.33809 | 9742 ft | 118 kts | 84° |
| 2026-05-07 08:25 | 13.62198 | 79.34650 | 9741 ft | 118 kts | 84° |
| 2026-05-07 08:25 | 13.62247 | 79.35495 | 9736 ft | 118 kts | 84° |
| 2026-05-07 08:25 | 13.62295 | 79.36338 | 9680 ft | 122 kts | 84° |
| 2026-05-07 08:25 | 13.62348 | 79.37247 | 9195 ft | 131 kts | 85° |
| 2026-05-07 08:26 | 13.62459 | 79.39178 | 8243 ft | 137 kts | 84° |
| 2026-05-07 08:26 | 13.62516 | 79.40149 | 7774 ft | 138 kts | 85° |
| 2026-05-07 08:26 | 13.62572 | 79.41138 | 7309 ft | 139 kts | 86° |
| 2026-05-07 08:27 | 13.62629 | 79.42132 | 6840 ft | 139 kts | 85° |
| 2026-05-07 08:27 | 13.62687 | 79.43129 | 6390 ft | 140 kts | 86° |
| 2026-05-07 08:27 | 13.62744 | 79.44129 | 5918 ft | 140 kts | 86° |
| 2026-05-07 08:27 | 13.62807 | 79.45118 | 5437 ft | 137 kts | 84° |
| 2026-05-07 08:28 | 13.62603 | 79.46033 | 4961 ft | 137 kts | 123° |
| 2026-05-07 08:28 | 13.61795 | 79.46522 | 4469 ft | 141 kts | 171° |
| 2026-05-07 08:28 | 13.60872 | 79.46191 | 3977 ft | 148 kts | 220° |
| 2026-05-07 08:28 | 13.60477 | 79.45231 | 3491 ft | 151 kts | 270° |
| 2026-05-07 08:29 | 13.60716 | 79.44190 | 3033 ft | 149 kts | 289° |
| 2026-05-07 08:29 | 13.60999 | 79.43240 | 2920 ft | 125 kts | 288° |
| 2026-05-07 08:29 | 13.61225 | 79.42454 | 2909 ft | 106 kts | 287° |
| 2026-05-07 08:29 | 13.61417 | 79.41788 | 2864 ft | 95 kts | 289° |
| 2026-05-07 08:30 | 13.61586 | 79.41146 | 2780 ft | 90 kts | 289° |
| 2026-05-07 08:30 | 13.61743 | 79.40547 | 2679 ft | 85 kts | 288° |
| 2026-05-07 08:30 | 13.61896 | 79.39987 | 2567 ft | 77 kts | 287° |
| 2026-05-07 08:30 | 13.62061 | 79.39444 | 2351 ft | 79 kts | 289° |
| 2026-05-07 08:31 | 13.62221 | 79.38894 | 2248 ft | 79 kts | 289° |
| 2026-05-07 08:31 | 13.62386 | 79.38339 | 2108 ft | 84 kts | 287° |
| 2026-05-07 08:31 | 13.62534 | 79.37798 | 2030 ft | 83 kts | 287° |
| 2026-05-07 08:31 | 13.62540 | 79.37281 | 2336 ft | 68 kts | 263° |
| 2026-05-07 08:32 | 13.62126 | 79.37051 | 2277 ft | 101 kts | 158° |
| 2026-05-07 08:32 | 13.61584 | 79.37247 | 2732 ft | 87 kts | 147° |
| 2026-05-07 08:32 | 13.60903 | 79.37652 | 2558 ft | 130 kts | 150° |
| 2026-05-07 08:32 | 13.60364 | 79.38353 | 2210 ft | 123 kts | 106° |
| 2026-05-07 08:33 | 13.60247 | 79.39148 | 2033 ft | 105 kts | 93° |
| 2026-05-07 08:33 | 13.60280 | 79.39871 | 1886 ft | 93 kts | 81° |
| 2026-05-07 08:33 | 13.60376 | 79.40603 | 1439 ft | 105 kts | 82° |
| 2026-05-07 08:33 | 13.60487 | 79.41323 | 1207 ft | 99 kts | 79° |
| 2026-05-07 08:34 | 13.60651 | 79.41915 | 1253 ft | 76 kts | 52° |
| 2026-05-07 08:34 | 13.61075 | 79.42215 | 1610 ft | 72 kts | 43° |
| 2026-05-07 08:34 | 13.61338 | 79.42433 | 1799 ft | 77 kts | 48° |
| 2026-05-07 08:34 | 13.61495 | 79.42961 | 2014 ft | 81 kts | 78° |
| 2026-05-07 08:35 | 13.61618 | 79.43511 | 2125 ft | 78 kts | 82° |
| 2026-05-07 08:35 | 13.61708 | 79.44049 | 1935 ft | 72 kts | 82° |
| 2026-05-07 08:35 | 13.61812 | 79.44673 | 1740 ft | 65 kts | 80° |
| 2026-05-07 08:35 | 13.61883 | 79.45128 | 1666 ft | 67 kts | 78° |
| 2026-05-07 08:36 | 13.61938 | 79.45450 | 1828 ft | 69 kts | 82° |
| 2026-05-07 08:36 | 13.62015 | 79.45927 | 2154 ft | 69 kts | 81° |
| 2026-05-07 08:36 | 13.62096 | 79.46484 | 2183 ft | 91 kts | 85° |
| 2026-05-07 08:36 | 13.62210 | 79.47168 | 2206 ft | 77 kts | 79° |
| 2026-05-07 08:37 | 13.62320 | 79.47751 | 1884 ft | 84 kts | 82° |
| 2026-05-07 08:37 | 13.62412 | 79.48390 | 1555 ft | 91 kts | 85° |
| 2026-05-07 08:37 | 13.62471 | 79.49017 | 1369 ft | 84 kts | 83° |
| 2026-05-07 08:37 | 13.62574 | 79.49663 | 958 ft | 96 kts | 78° |
| 2026-05-07 08:38 | 13.62704 | 79.50304 | 907 ft | 81 kts | 80° |
| 2026-05-07 08:38 | 13.62793 | 79.50861 | 839 ft | 80 kts | 80° |
| 2026-05-07 08:38 | 13.62884 | 79.51427 | 739 ft | 80 kts | 83° |
| 2026-05-07 08:38 | 13.62915 | 79.52000 | 567 ft | 81 kts | 81° |
| 2026-05-07 08:39 | 13.62996 | 79.52567 | 465 ft | 78 kts | 79° |
| 2026-05-07 08:39 | 13.63078 | 79.53105 | 398 ft | 77 kts | 79° |
| 2026-05-07 08:39 | 13.63151 | 79.53622 | 355 ft | 68 kts | 80° |
| 2026-05-07 08:39 | 13.63214 | 79.54038 | 350 ft | 51 kts | 78° |
| 2026-05-07 08:40 | 13.63260 | 79.54323 | 345 ft | 18 kts | 55° |
| 2026-05-07 08:40 | 13.63324 | 79.54329 | 345 ft | 7 kts | 348° |
| 2026-05-07 08:40 | 13.63380 | 79.54320 | 349 ft | 8 kts | 352° |
| 2026-05-07 08:40 | 13.63408 | 79.54300 | 346 ft | 6 kts | 276° |
| 2026-05-07 08:41 | 13.63406 | 79.54285 | 350 ft | 0 kts | 257° |